Flight Track Log - Related Links

Times and Time Zones

All times are in EDT time to prevent confusion due to time zone crossing. See the N789EP flight status page for this flight to view local times or setup timezone preferences in your user account.

Time Position Orientation Groundspeed Altitude Reporting Facility
EDT Latitude Longitude Course Direction KTS MPH feet Rate Location/Type
Thu 12:06:43 PM 39.3167 -76.4167 270° West 85 98 1,400  Level Potomac TRACON
Thu 12:07:38 PM 39.3167 -76.4500 270° West 86 99 2,100 783 Climbing Potomac TRACON
Thu 12:08:38 PM 39.3333 -76.4667 322° Northwest 76 87 2,900 750 Climbing Potomac TRACON
Thu 12:09:38 PM 39.3500 -76.4667 360° North 78 90 3,600 750 Climbing Potomac TRACON
Thu 12:10:38 PM 39.3667 -76.4667 360° North 88 101 4,400 700 Climbing Potomac TRACON
Thu 12:11:38 PM 39.4000 -76.4500 21° North 92 106 5,000 313 Climbing Potomac TRACON
Thu 12:12:33 PM 39.4333 -76.4500 360° North 116 133 5,000 52 Level Potomac TRACON
Thu 12:13:33 PM 39.4667 -76.4500 360° North 117 135 5,100 100 Climbing Potomac TRACON
Thu 12:14:33 PM 39.5000 -76.4500 360° North 116 133 5,200  Climbing Potomac TRACON
Thu 12:15:33 PM 39.5333 -76.4500 360° North 122 140 5,100 -105 Descending Potomac TRACON
Thu 12:16:27 PM 39.5500 -76.4500 360° North 126 145 5,000 -105 Descending Potomac TRACON
Thu 12:17:27 PM 39.6000 -76.4500 360° North 121 139 4,900  Descending Potomac TRACON
Thu 12:18:27 PM 39.6167 -76.4333 38° Northeast 111 128 5,000 50 Climbing Potomac TRACON
Thu 12:19:27 PM 39.6500 -76.4167 21° North 112 129 5,000  Level Potomac TRACON
Thu 12:21:00 PM 39.6873 -76.3896 29° Northeast  Level FlightAware Approximate
Thu 12:28:00 PM 39.8776 -76.3481 North  Level Estimated
Thu 12:29:00 PM 39.8982 -76.3242 42° Northeast  Level FlightAware Approximate
Thu 12:30:00 PM 39.9257 -76.3205 North  Level Estimated
Thu 12:31:00 PM 39.9483 -76.3000 35° Northeast  Level FlightAware Approximate
Thu 12:32:00 PM 39.9758 -76.2991 North  Level Estimated
Thu 12:33:00 PM 40.0034 -76.2982 North  Level Estimated
Thu 12:34:00 PM 40.0302 -76.2897 14° North  Level FlightAware Approximate
Thu 12:35:00 PM 40.0577 -76.2911 North  Level Estimated
Thu 12:36:00 PM 40.0852 -76.2875 North  Level FlightAware Approximate
Thu 12:37:00 PM 40.1167 -76.2833 North  Level FlightAware Approximate
Thu 12:38:00 PM 40.1224 -76.2944 North  Level Estimated
Thu 12:39:00 PM 40.1224 -76.2944 North  Level Estimated
Thu 12:40:00 PM 40.1224 -76.2944 North  Level Estimated
Thu 12:41:00 PM 40.1224 -76.2944 North  Level Estimated
Thu 12:42:00 PM 40.1224 -76.2944 North  Level Estimated
Thu 12:43:00 PM 40.1224 -76.2944 North  Level Estimated
Thu 12:44:00 PM 40.1224 -76.2944 North  Level Estimated
Thu 12:45:00 PM 40.1224 -76.2944 North  Level Estimated
Thu 12:46:00 PM 40.1224 -76.2944 North  Level Estimated
Thu 12:47:00 PM 40.1224 -76.2944 North  Level Estimated

Login

Don't have an account? Register now (free) for customized features, flight alerts, and more!